Time;durP1;ratioP1;P1;durP2;ratioP2;P2;SDS_P1;SDS_P2;PMS_P1;PMS_P2;Temp;Humidity;BMP_temperature;BMP_pressure;BME280_temperature;BME280_humidity;BME280_pressure;Samples;Min_cycle;Max_cycle;Signal;HPM_P1;HPM_P2
2023/04/11 00:01:59;;;;;;;1999.90;999.90;;;14.50;86.40;;;;;;5115863;27;20024;-77
2023/04/11 00:04:25;;;;;;;1999.90;999.90;;;14.60;86.00;;;;;;5115712;27;20089;-77
2023/04/11 00:06:51;;;;;;;1999.90;999.90;;;14.50;86.80;;;;;;5115882;27;20020;-77
2023/04/11 00:09:16;;;;;;;1999.90;999.90;;;14.50;86.90;;;;;;5115857;27;20055;-77
2023/04/11 00:11:42;;;;;;;1999.90;999.90;;;14.50;88.20;;;;;;5113982;28;20052;-77
2023/04/11 00:14:08;;;;;;;1999.90;999.90;;;14.50;89.60;;;;;;5115561;27;20435;-77
2023/04/11 00:16:34;;;;;;;1999.90;999.90;;;14.40;91.30;;;;;;5115842;27;20087;-77
2023/04/11 00:19:00;;;;;;;1999.90;999.90;;;14.10;93.70;;;;;;5115772;27;20040;-77
2023/04/11 00:21:26;;;;;;;1999.90;999.90;;;13.80;95.50;;;;;;5115567;27;20024;-77
2023/04/11 00:23:52;;;;;;;1999.90;999.90;;;13.40;96.60;;;;;;5115510;27;20039;-77
2023/04/11 00:26:20;;;;;;;1999.90;999.90;;;13.20;97.80;;;;;;5114385;28;20032;-76
2023/04/11 00:28:46;;;;;;;1999.90;999.90;;;13.10;97.80;;;;;;5115727;28;20178;-76
2023/04/11 00:31:12;;;;;;;1999.90;999.90;;;12.90;98.60;;;;;;5115259;27;20481;-75
2023/04/11 00:33:37;;;;;;;1999.90;999.90;;;12.90;99.10;;;;;;5115897;27;20032;-76
2023/04/11 00:36:03;;;;;;;1999.90;999.90;;;12.90;99.60;;;;;;5115630;27;20690;-76
2023/04/11 00:38:28;;;;;;;1999.90;999.90;;;12.80;99.90;;;;;;5115568;27;20067;-76
2023/04/11 00:40:54;;;;;;;1999.90;999.90;;;12.60;99.90;;;;;;5113555;28;20028;-77
2023/04/11 00:43:19;;;;;;;1999.90;999.90;;;12.40;99.90;;;;;;5119370;27;20044;-77
2023/04/11 00:45:46;;;;;;;1999.90;999.90;;;12.20;99.90;;;;;;5118169;27;20050;-77
2023/04/11 00:48:11;;;;;;;1999.90;999.90;;;11.80;99.90;;;;;;5118286;27;20473;-78
2023/04/11 00:50:41;;;;;;;1999.90;999.90;;;11.60;99.90;;;;;;5120046;27;20075;-77
2023/04/11 00:53:10;;;;;;;1999.90;999.90;;;11.40;99.90;;;;;;5123940;27;20024;-77
2023/04/11 00:55:35;;;;;;;1999.90;999.90;;;11.20;99.90;;;;;;5119247;27;20068;-77
2023/04/11 00:58:01;;;;;;;1999.90;999.90;;;11.00;99.90;;;;;;5116328;27;20059;-77
2023/04/11 01:00:31;;;;;;;1999.90;999.90;;;11.00;99.90;;;;;;5116690;27;20040;-76
2023/04/11 01:02:57;;;;;;;1999.90;999.90;;;10.90;99.90;;;;;;5115996;27;20027;-77
2023/04/11 01:05:22;;;;;;;1999.90;999.90;;;10.80;99.90;;;;;;5115901;27;20055;-78
2023/04/11 01:07:50;;;;;;;1999.90;999.90;;;10.70;99.90;;;;;;5114895;27;20055;-77
2023/04/11 01:10:16;;;;;;;1999.90;999.90;;;10.70;99.90;;;;;;5115720;27;20067;-77
2023/04/11 01:12:44;;;;;;;1999.90;999.90;;;10.70;99.90;;;;;;5115836;27;20505;-77
2023/04/11 01:15:10;;;;;;;1999.90;999.90;;;10.60;99.90;;;;;;5115030;27;20035;-77
2023/04/11 01:17:35;;;;;;;1999.90;999.90;;;10.60;99.90;;;;;;5115365;27;20039;-76
2023/04/11 01:20:01;;;;;;;1999.90;999.90;;;10.60;99.90;;;;;;5115357;28;20521;-76
2023/04/11 01:22:27;;;;;;;1999.90;999.90;;;10.60;99.90;;;;;;5115244;28;20378;-76
2023/04/11 01:24:53;;;;;;;1999.90;999.90;;;10.60;99.90;;;;;;5115216;27;20445;-77
2023/04/11 01:27:18;;;;;;;1999.90;999.90;;;10.50;99.90;;;;;;5114865;27;20067;-77
2023/04/11 01:29:44;;;;;;;1999.90;999.90;;;10.50;99.90;;;;;;5115365;27;20036;-76
2023/04/11 01:32:10;;;;;;;1999.90;999.90;;;10.50;99.90;;;;;;5114928;28;20082;-77
2023/04/11 01:34:38;;;;;;;1999.90;999.90;;;10.50;99.90;;;;;;5114607;27;20034;-76
2023/04/11 01:37:04;;;;;;;1999.90;999.90;;;10.50;99.90;;;;;;5117930;27;20525;-76
2023/04/11 01:39:29;;;;;;;1999.90;999.90;;;10.50;99.90;;;;;;5118264;27;20040;-76
2023/04/11 01:41:56;;;;;;;1999.90;999.90;;;10.40;99.90;;;;;;5118037;28;20448;-76
2023/04/11 01:44:23;;;;;;;1999.90;999.90;;;10.40;99.90;;;;;;5117899;27;20039;-76
2023/04/11 01:46:49;;;;;;;1999.90;999.90;;;10.40;99.90;;;;;;5117347;28;20114;-75
2023/04/11 01:49:16;;;;;;;1999.90;999.90;;;10.40;99.90;;;;;;5118085;27;20122;-75
2023/04/11 01:51:42;;;;;;;1999.90;999.90;;;10.40;99.90;;;;;;5117694;27;20032;-75
2023/04/11 01:54:07;;;;;;;1999.90;999.90;;;10.40;99.90;;;;;;5117827;27;20493;-76
2023/04/11 01:56:33;;;;;;;1999.90;999.90;;;10.40;99.90;;;;;;5117798;28;20086;-75
2023/04/11 01:58:59;;;;;;;1999.90;999.90;;;10.40;99.90;;;;;;5117981;28;20118;-76
2023/04/11 02:01:25;;;;;;;1999.90;999.90;;;10.50;99.90;;;;;;5117706;28;20031;-76
2023/04/11 02:03:50;;;;;;;1999.90;999.90;;;10.50;99.90;;;;;;5117795;28;20034;-75
2023/04/11 02:06:16;;;;;;;1999.90;999.90;;;10.50;99.90;;;;;;5116124;28;20401;-75
2023/04/11 02:08:42;;;;;;;1999.90;999.90;;;10.40;99.90;;;;;;5117554;27;20058;-76
2023/04/11 02:11:08;;;;;;;1999.90;999.90;;;10.40;99.90;;;;;;5117493;27;20063;-76
2023/04/11 02:13:34;;;;;;;1999.90;999.90;;;10.40;99.90;;;;;;5117771;27;20032;-76
2023/04/11 02:16:13;;;;;;;1999.90;999.90;;;10.30;99.90;;;;;;5117119;27;20028;-75
2023/04/11 02:18:40;;;;;;;1999.90;999.90;;;10.30;99.90;;;;;;5117375;28;20035;-75
2023/04/11 02:21:06;;;;;;;1999.90;999.90;;;10.30;99.90;;;;;;5117302;27;20149;-75
2023/04/11 02:23:31;;;;;;;1999.90;999.90;;;10.20;99.90;;;;;;5117586;27;20501;-75
2023/04/11 02:25:57;;;;;;;1999.90;999.90;;;10.10;99.90;;;;;;5116983;28;20202;-76
2023/04/11 02:28:23;;;;;;;1999.90;999.90;;;10.00;99.90;;;;;;5116766;27;20067;-75
2023/04/11 02:30:48;;;;;;;1999.90;999.90;;;9.90;99.90;;;;;;5116465;27;20039;-76
2023/04/11 02:33:14;;;;;;;1999.90;999.90;;;9.90;99.90;;;;;;5115877;28;20034;-75
2023/04/11 02:35:40;;;;;;;1999.90;999.90;;;9.80;99.90;;;;;;5117033;27;20032;-75
2023/04/11 02:38:06;;;;;;;1999.90;999.90;;;9.80;99.90;;;;;;5116867;28;20043;-75
2023/04/11 02:40:31;;;;;;;1999.90;999.90;;;9.70;99.90;;;;;;5115410;28;20031;-76
2023/04/11 02:42:57;;;;;;;1999.90;999.90;;;9.70;99.90;;;;;;5116638;28;20039;-76
2023/04/11 02:45:22;;;;;;;1999.90;999.90;;;9.70;99.90;;;;;;5116884;28;20032;-75
2023/04/11 02:47:48;;;;;;;1999.90;999.90;;;9.70;99.90;;;;;;5116803;27;20040;-76
2023/04/11 02:50:13;;;;;;;1999.90;999.90;;;9.70;99.90;;;;;;5117172;27;20089;-76
2023/04/11 02:52:41;;;;;;;1999.90;999.90;;;9.70;99.90;;;;;;5116925;27;20036;-76
2023/04/11 02:55:07;;;;;;;1999.90;999.90;;;9.70;99.90;;;;;;5116719;27;20077;-76
2023/04/11 02:57:33;;;;;;;1999.90;999.90;;;9.70;99.90;;;;;;5117398;27;20027;-76
2023/04/11 02:59:58;;;;;;;1999.90;999.90;;;9.70;99.90;;;;;;5116346;28;20029;-76
2023/04/11 03:02:24;;;;;;;1999.90;999.90;;;9.80;99.90;;;;;;5116755;27;20028;-75
2023/04/11 03:04:50;;;;;;;1999.90;999.90;;;9.80;99.90;;;;;;5116348;28;20036;-76
2023/04/11 03:07:15;;;;;;;1999.90;999.90;;;9.90;99.90;;;;;;5116798;27;20379;-75
2023/04/11 03:09:41;;;;;;;1999.90;999.90;;;9.80;99.90;;;;;;5116510;28;20082;-75
2023/04/11 03:12:06;;;;;;;1999.90;999.90;;;9.90;99.90;;;;;;5116589;28;20028;-76
2023/04/11 03:14:32;;;;;;;1999.90;999.90;;;9.90;99.90;;;;;;5116429;27;20043;-75
2023/04/11 03:16:57;;;;;;;1999.90;999.90;;;9.90;99.90;;;;;;5116515;27;20061;-76
2023/04/11 03:19:23;;;;;;;1999.90;999.90;;;9.90;99.90;;;;;;5116426;27;20574;-74
2023/04/11 03:21:48;;;;;;;1999.90;999.90;;;9.90;99.90;;;;;;5116261;28;20418;-76
2023/04/11 03:24:14;;;;;;;1999.90;999.90;;;9.90;99.90;;;;;;5116317;27;20402;-75
2023/04/11 03:26:39;;;;;;;1999.90;999.90;;;9.90;99.90;;;;;;5116473;27;20028;-75
2023/04/11 03:29:05;;;;;;;1999.90;999.90;;;9.90;99.90;;;;;;5116127;27;20524;-75
2023/04/11 03:31:30;;;;;;;1999.90;999.90;;;9.80;99.90;;;;;;5114673;28;20032;-75
2023/04/11 03:33:58;;;;;;;1999.90;999.90;;;9.80;99.90;;;;;;5116165;27;20040;-74
2023/04/11 03:36:25;;;;;;;1999.90;999.90;;;9.80;99.90;;;;;;5116363;27;20024;-75
2023/04/11 03:38:50;;;;;;;1999.90;999.90;;;9.80;99.90;;;;;;5116057;28;20032;-74
2023/04/11 03:41:18;;;;;;;1999.90;999.90;;;9.80;99.90;;;;;;5115807;28;20039;-75
2023/04/11 03:43:44;;;;;;;1999.90;999.90;;;9.70;99.90;;;;;;5118113;27;20485;-77
2023/04/11 03:46:10;;;;;;;1999.90;999.90;;;9.70;99.90;;;;;;5116158;27;20035;-75
2023/04/11 03:48:35;;;;;;;1999.90;999.90;;;9.70;99.90;;;;;;5117324;28;20393;-77
2023/04/11 03:51:01;;;;;;;1999.90;999.90;;;9.70;99.90;;;;;;5118904;28;20470;-77
2023/04/11 03:53:26;;;;;;;1999.90;999.90;;;9.60;99.90;;;;;;5117551;28;20483;-75
2023/04/11 03:55:53;;;;;;;1999.90;999.90;;;9.70;99.90;;;;;;5115514;27;20090;-76
2023/04/11 03:58:18;;;;;;;1999.90;999.90;;;9.70;99.90;;;;;;5115527;27;20024;-76
2023/04/11 04:00:45;;;;;;;1999.90;999.90;;;9.70;99.90;;;;;;5114428;28;20028;-75
2023/04/11 04:03:12;;;;;;;1999.90;999.90;;;9.70;99.90;;;;;;5115885;28;20079;-76
2023/04/11 04:05:39;;;;;;;1999.90;999.90;;;9.60;99.90;;;;;;5114069;28;20050;-76
2023/04/11 04:08:05;;;;;;;1999.90;999.90;;;9.60;99.90;;;;;;5115737;27;20032;-75
2023/04/11 04:10:30;;;;;;;1999.90;999.90;;;9.60;99.90;;;;;;5115186;28;20032;-75
2023/04/11 04:12:56;;;;;;;1999.90;999.90;;;9.60;99.90;;;;;;5115711;27;20808;-75
2023/04/11 04:15:21;;;;;;;1999.90;999.90;;;9.50;99.90;;;;;;5115433;27;20630;-75
2023/04/11 04:17:47;;;;;;;1999.90;999.90;;;9.40;99.90;;;;;;5115576;28;20040;-75
2023/04/11 04:20:12;;;;;;;1999.90;999.90;;;9.40;99.90;;;;;;5115829;28;20752;-75
2023/04/11 04:22:38;;;;;;;1999.90;999.90;;;9.30;99.90;;;;;;5114420;28;20128;-75
2023/04/11 04:25:04;;;;;;;1999.90;999.90;;;9.30;99.90;;;;;;5115759;27;20048;-75
2023/04/11 04:27:30;;;;;;;1999.90;999.90;;;9.20;99.90;;;;;;5113865;28;20035;-75
2023/04/11 04:29:56;;;;;;;1999.90;999.90;;;9.20;99.90;;;;;;5116562;27;20466;-75
2023/04/11 04:32:22;;;;;;;1999.90;999.90;;;9.20;99.90;;;;;;5115998;27;20039;-76
2023/04/11 04:34:53;;;;;;;1999.90;999.90;;;9.20;99.90;;;;;;5115735;27;20054;-74
2023/04/11 04:37:21;;;;;;;1999.90;999.90;;;9.10;99.90;;;;;;5116277;27;20470;-75
2023/04/11 04:39:54;;;;;;;1999.90;999.90;;;9.10;99.90;;;;;;5115916;27;20036;-75
2023/04/11 04:42:25;;;;;;;1999.90;999.90;;;9.10;99.90;;;;;;5115547;27;20068;-75
2023/04/11 04:44:51;;;;;;;1999.90;999.90;;;9.10;99.90;;;;;;5115369;27;20043;-76
2023/04/11 04:47:17;;;;;;;1999.90;999.90;;;9.10;99.90;;;;;;5115967;27;20036;-75
2023/04/11 04:49:44;;;;;;;1999.90;999.90;;;9.10;99.90;;;;;;5114153;28;20036;-74
2023/04/11 04:52:11;;;;;;;1999.90;999.90;;;9.10;99.90;;;;;;5113768;28;20401;-75
2023/04/11 04:54:36;;;;;;;1999.90;999.90;;;9.10;99.90;;;;;;5114930;27;20094;-75
2023/04/11 04:57:02;;;;;;;1999.90;999.90;;;9.00;99.90;;;;;;5115367;27;20040;-75
2023/04/11 04:59:27;;;;;;;1999.90;999.90;;;9.00;99.90;;;;;;5115682;27;20034;-75
2023/04/11 05:01:53;;;;;;;1999.90;999.90;;;9.00;99.90;;;;;;5116642;27;20050;-75
2023/04/11 05:04:20;;;;;;;1999.90;999.90;;;9.00;99.90;;;;;;5114993;27;20111;-76
2023/04/11 05:06:45;;;;;;;1999.90;999.90;;;9.00;99.90;;;;;;5114180;27;20420;-76
2023/04/11 05:09:11;;;;;;;1999.90;999.90;;;9.00;99.90;;;;;;5114946;27;20123;-75
2023/04/11 05:11:37;;;;;;;1999.90;999.90;;;9.00;99.90;;;;;;5118107;27;20108;-75
2023/04/11 05:14:02;;;;;;;1999.90;999.90;;;9.00;99.90;;;;;;5118064;27;20036;-75
2023/04/11 05:16:28;;;;;;;1999.90;999.90;;;9.00;99.90;;;;;;5118532;27;20028;-76
2023/04/11 05:18:53;;;;;;;1999.90;999.90;;;9.00;99.90;;;;;;5118214;27;20032;-75
2023/04/11 05:21:19;;;;;;;1999.90;999.90;;;9.00;99.90;;;;;;5118320;27;20039;-75
2023/04/11 05:23:45;;;;;;;1999.90;999.90;;;8.90;99.90;;;;;;5118723;27;20028;-75
2023/04/11 05:26:10;;;;;;;1999.90;999.90;;;8.70;99.90;;;;;;5118199;27;20029;-74
2023/04/11 05:28:36;;;;;;;1999.90;999.90;;;8.60;99.90;;;;;;5118194;27;20048;-76
2023/04/11 05:31:02;;;;;;;1999.90;999.90;;;8.50;99.90;;;;;;5118437;28;20047;-74
2023/04/11 05:33:28;;;;;;;1999.90;999.90;;;8.50;99.90;;;;;;5118380;27;20036;-74
2023/04/11 05:35:54;;;;;;;1999.90;999.90;;;8.50;99.90;;;;;;5117543;27;20040;-75
2023/04/11 05:38:19;;;;;;;1999.90;999.90;;;8.50;99.90;;;;;;5117753;27;20441;-75
2023/04/11 05:40:45;;;;;;;1999.90;999.90;;;8.50;99.90;;;;;;5117398;27;20043;-75
2023/04/11 05:43:13;;;;;;;1999.90;999.90;;;8.60;99.90;;;;;;5117616;28;20032;-75
2023/04/11 05:45:48;;;;;;;1999.90;999.90;;;8.60;99.90;;;;;;5117810;27;20102;-75
2023/04/11 05:48:18;;;;;;;1999.90;999.90;;;8.60;99.90;;;;;;5117612;27;20036;-75
2023/04/11 05:50:44;;;;;;;1999.90;999.90;;;8.70;99.90;;;;;;5117233;27;20102;-74
2023/04/11 05:53:10;;;;;;;1999.90;999.90;;;8.50;99.90;;;;;;5117720;27;20028;-74
2023/04/11 05:55:36;;;;;;;1999.90;999.90;;;8.30;99.90;;;;;;5116719;27;20051;-76
2023/04/11 05:58:02;;;;;;;1999.90;999.90;;;8.30;99.90;;;;;;5117421;28;20457;-77
2023/04/11 06:00:29;;;;;;;1999.90;999.90;;;8.40;99.90;;;;;;5115646;27;20046;-73
2023/04/11 06:02:55;;;;;;;1999.90;999.90;;;8.50;99.90;;;;;;5117358;28;20097;-75
2023/04/11 06:05:21;;;;;;;1999.90;999.90;;;8.50;99.90;;;;;;5117639;27;20099;-75
2023/04/11 06:07:47;;;;;;;1999.90;999.90;;;8.50;99.90;;;;;;5118317;27;20397;-77
2023/04/11 06:10:12;;;;;;;1999.90;999.90;;;8.60;99.90;;;;;;5117894;27;20461;-76
2023/04/11 06:12:38;;;;;;;1999.90;999.90;;;8.70;99.90;;;;;;5118378;27;20042;-76
2023/04/11 06:15:04;;;;;;;1999.90;999.90;;;8.70;99.90;;;;;;5118214;27;20111;-76
2023/04/11 06:17:30;;;;;;;1999.90;999.90;;;8.70;99.90;;;;;;5118014;27;20024;-75
2023/04/11 06:19:55;;;;;;;1999.90;999.90;;;8.70;99.90;;;;;;5117820;27;20028;-76
2023/04/11 06:22:21;;;;;;;1999.90;999.90;;;8.70;99.90;;;;;;5117297;27;20460;-78
2023/04/11 06:24:47;;;;;;;1999.90;999.90;;;8.70;99.90;;;;;;5116223;27;20069;-77
2023/04/11 06:27:13;;;;;;;1999.90;999.90;;;8.70;99.90;;;;;;5103099;27;20112;-76
2023/04/11 06:29:40;;;;;;;1999.90;999.90;;;8.80;99.90;;;;;;5096760;28;20044;-77
2023/04/11 06:32:06;;;;;;;1999.90;999.90;;;8.70;99.90;;;;;;5107808;27;20060;-75
2023/04/11 06:34:33;;;;;;;1999.90;999.90;;;8.80;99.90;;;;;;5137442;27;20406;-75
2023/04/11 06:36:58;;;;;;;1999.90;999.90;;;8.80;99.90;;;;;;5115257;27;20043;-75
2023/04/11 06:39:24;;;;;;;1999.90;999.90;;;8.80;99.90;;;;;;5105491;27;20046;-75
2023/04/11 06:41:50;;;;;;;1999.90;999.90;;;8.90;99.90;;;;;;5110701;27;20032;-75
2023/04/11 06:44:16;;;;;;;1999.90;999.90;;;8.90;99.90;;;;;;5119112;27;20059;-76
2023/04/11 06:46:43;;;;;;;1999.90;999.90;;;9.00;99.90;;;;;;5118217;27;20494;-75
2023/04/11 06:49:10;;;;;;;1999.90;999.90;;;9.00;99.90;;;;;;5116638;27;20048;-75
2023/04/11 06:51:36;;;;;;;1999.90;999.90;;;9.10;99.90;;;;;;5115438;27;20453;-76
2023/04/11 06:54:02;;;;;;;1999.90;999.90;;;9.10;99.90;;;;;;5116839;27;20043;-76
2023/04/11 06:56:28;;;;;;;1999.90;999.90;;;9.10;99.90;;;;;;5116730;27;20035;-75
2023/04/11 06:58:53;;;;;;;1999.90;999.90;;;9.20;99.90;;;;;;5115727;27;20043;-75
2023/04/11 07:01:24;;;;;;;1999.90;999.90;;;9.30;99.90;;;;;;5116318;27;20534;-75
2023/04/11 07:03:51;;;;;;;1999.90;999.90;;;9.40;99.90;;;;;;5115077;28;20040;-76
2023/04/11 07:06:20;;;;;;;1999.90;999.90;;;9.30;99.90;;;;;;5100007;27;20418;-75
2023/04/11 07:08:45;;;;;;;1999.90;999.90;;;9.20;99.90;;;;;;5096320;28;20545;-75
2023/04/11 07:11:11;;;;;;;1999.90;999.90;;;9.30;99.90;;;;;;5096110;28;20108;-75
2023/04/11 07:13:37;;;;;;;1999.90;999.90;;;9.40;99.90;;;;;;5096345;28;20028;-76
2023/04/11 07:16:02;;;;;;;1999.90;999.90;;;9.50;99.90;;;;;;5114811;28;20036;-76
2023/04/11 07:18:29;;;;;;;1999.90;999.90;;;9.60;99.90;;;;;;5116446;27;20043;-75
2023/04/11 07:20:55;;;;;;;1999.90;999.90;;;9.70;99.90;;;;;;5116650;27;20028;-77
2023/04/11 07:23:20;;;;;;;1999.90;999.90;;;9.90;99.90;;;;;;5116847;27;20077;-75
2023/04/11 07:25:46;;;;;;;1999.90;999.90;;;9.80;99.90;;;;;;5102143;27;20033;-76
2023/04/11 07:28:11;;;;;;;1999.90;999.90;;;9.90;99.90;;;;;;5095023;28;20044;-76
2023/04/11 07:30:37;;;;;;;1999.90;999.90;;;9.80;99.90;;;;;;5094738;28;20033;-76
2023/04/11 07:33:03;;;;;;;1999.90;999.90;;;9.80;99.90;;;;;;5109871;27;20035;-76
2023/04/11 07:35:29;;;;;;;1999.90;999.90;;;9.90;99.90;;;;;;5115940;27;20397;-76
2023/04/11 07:37:56;;;;;;;1999.90;999.90;;;10.00;99.90;;;;;;5094907;28;20036;-76
2023/04/11 07:40:21;;;;;;;1999.90;999.90;;;10.10;99.90;;;;;;5102587;28;20028;-76
2023/04/11 07:42:47;;;;;;;1999.90;999.90;;;10.10;99.90;;;;;;5117462;27;20039;-76
2023/04/11 07:45:13;;;;;;;1999.90;999.90;;;10.20;99.90;;;;;;5117103;27;20365;-77
2023/04/11 07:47:38;;;;;;;1999.90;999.90;;;10.30;99.90;;;;;;5117078;27;20512;-76
2023/04/11 07:50:04;;;;;;;1999.90;999.90;;;10.40;99.90;;;;;;5117558;27;20114;-76
2023/04/11 07:52:30;;;;;;;1999.90;999.90;;;10.50;99.90;;;;;;5102386;27;20098;-77
2023/04/11 07:54:56;;;;;;;1999.90;999.90;;;10.40;99.90;;;;;;5117076;27;20116;-76
2023/04/11 07:57:22;;;;;;;1999.90;999.90;;;10.20;99.90;;;;;;5117143;27;20040;-77
2023/04/11 07:59:47;;;;;;;1999.90;999.90;;;10.30;99.90;;;;;;5115878;27;20043;-77
2023/04/11 08:02:13;;;;;;;1999.90;999.90;;;10.50;99.90;;;;;;5096563;28;20032;-76
2023/04/11 08:04:38;;;;;;;1999.90;999.90;;;10.60;99.90;;;;;;5096483;28;20091;-77
2023/04/11 08:07:04;;;;;;;1999.90;999.90;;;10.80;99.90;;;;;;5096528;28;20041;-77
2023/04/11 08:09:29;;;;;;;1999.90;999.90;;;10.80;99.90;;;;;;5096286;28;20178;-77
2023/04/11 08:11:55;;;;;;;1999.90;999.90;;;10.90;99.90;;;;;;5116725;28;20036;-78
2023/04/11 08:14:22;;;;;;;1999.90;999.90;;;10.80;99.90;;;;;;5117426;27;20032;-78
2023/04/11 08:16:48;;;;;;;1999.90;999.90;;;10.90;99.90;;;;;;5117182;27;20063;-77
2023/04/11 08:19:13;;;;;;;1999.90;999.90;;;10.90;99.90;;;;;;5111682;27;20562;-77
2023/04/11 08:21:40;;;;;;;1999.90;999.90;;;10.90;99.90;;;;;;5096636;28;20033;-77
2023/04/11 08:24:06;;;;;;;1999.90;999.90;;;11.00;99.90;;;;;;5097650;28;20035;-78
2023/04/11 08:26:31;;;;;;;1999.90;999.90;;;10.80;99.90;;;;;;5094799;28;20036;-77
2023/04/11 08:28:57;;;;;;;1999.90;999.90;;;10.70;99.90;;;;;;5103757;28;20044;-78
2023/04/11 08:31:22;;;;;;;1999.90;999.90;;;10.80;99.90;;;;;;5116523;27;20086;-79
2023/04/11 08:33:48;;;;;;;1999.90;999.90;;;10.90;99.90;;;;;;5111307;27;20163;-77
2023/04/11 08:36:13;;;;;;;1999.90;999.90;;;11.10;99.90;;;;;;5095284;28;20418;-77
2023/04/11 08:38:39;;;;;;;1999.90;999.90;;;11.40;99.90;;;;;;5095920;28;20036;-78
2023/04/11 08:41:05;;;;;;;1999.90;999.90;;;11.70;99.90;;;;;;5095597;28;20052;-77
2023/04/11 08:43:35;;;;;;;1999.90;999.90;;;11.60;99.90;;;;;;5112738;27;20590;-77
2023/04/11 08:46:06;;;;;;;1999.90;999.90;;;11.40;99.90;;;;;;5117794;27;20098;-77
2023/04/11 08:48:32;;;;;;;1999.90;999.90;;;11.30;99.90;;;;;;5119731;27;20032;-76
2023/04/11 08:50:58;;;;;;;1999.90;999.90;;;11.30;99.90;;;;;;5117823;27;20036;-77
2023/04/11 08:53:25;;;;;;;1999.90;999.90;;;11.30;99.90;;;;;;5119813;27;20072;-77
2023/04/11 08:55:50;;;;;;;1999.90;999.90;;;11.20;99.90;;;;;;5119063;27;20036;-76
2023/04/11 08:58:16;;;;;;;1999.90;999.90;;;11.00;99.90;;;;;;5119283;27;20485;-77
2023/04/11 09:00:42;;;;;;;1999.90;999.90;;;11.00;99.90;;;;;;5106271;28;20024;-77
2023/04/11 09:03:10;;;;;;;1999.90;999.90;;;10.90;99.90;;;;;;5097041;27;20032;-77
2023/04/11 09:05:42;;;;;;;1999.90;999.90;;;11.10;99.90;;;;;;5098834;28;20490;-77
2023/04/11 09:08:13;;;;;;;1999.90;999.90;;;11.60;99.90;;;;;;5107102;28;20052;-76
2023/04/11 09:10:41;;;;;;;1999.90;999.90;;;11.80;99.90;;;;;;5105974;28;20032;-77
2023/04/11 09:13:17;;;;;;;1999.90;999.90;;;11.60;99.90;;;;;;5099000;28;20044;-77
2023/04/11 09:15:42;;;;;;;1999.90;999.90;;;11.30;99.90;;;;;;5098417;28;20552;-76
2023/04/11 09:18:08;;;;;;;1999.90;999.90;;;11.50;99.90;;;;;;5098806;28;20064;-77
2023/04/11 09:20:33;;;;;;;1999.90;999.90;;;11.80;99.90;;;;;;5099286;28;20032;-81
2023/04/11 09:22:59;;;;;;;1999.90;999.90;;;12.00;99.90;;;;;;5100938;28;20032;-80
2023/04/11 09:25:27;;;;;;;1999.90;999.90;;;12.00;99.90;;;;;;5119299;28;20047;-79
2023/04/11 09:28:07;;;;;;;1999.90;999.90;;;12.20;99.90;;;;;;5119216;28;20533;-79
2023/04/11 09:30:34;;;;;;;1999.90;999.90;;;12.40;99.90;;;;;;5121044;28;20078;-79
2023/04/11 09:33:18;;;;;;;1999.90;999.90;;;12.80;99.90;;;;;;5125766;27;20052;-79
2023/04/11 09:35:55;;;;;;;1999.90;999.90;;;12.60;99.90;;;;;;5123502;27;20150;-80
2023/04/11 09:38:35;;;;;;;1999.90;999.90;;;12.40;99.90;;;;;;5128310;27;20039;-79
2023/04/11 09:41:02;;;;;;;1999.90;999.90;;;12.10;99.90;;;;;;5119574;28;20119;-79
2023/04/11 09:43:49;;;;;;;1999.90;999.90;;;12.40;99.90;;;;;;5119581;27;20032;-78
2023/04/11 09:46:17;;;;;;;1999.90;999.90;;;12.80;99.90;;;;;;5115548;28;20036;-78
2023/04/11 09:48:43;;;;;;;1999.90;999.90;;;12.70;99.90;;;;;;5119790;27;20055;-78
2023/04/11 09:51:09;;;;;;;1999.90;999.90;;;12.90;99.90;;;;;;5120197;27;20512;-78
2023/04/11 09:53:36;;;;;;;1999.90;999.90;;;13.50;99.90;;;;;;5123367;27;20031;-78
2023/04/11 09:56:03;;;;;;;1999.90;999.90;;;13.30;98.60;;;;;;5120516;27;20089;-78
2023/04/11 09:58:30;;;;;;;1999.90;999.90;;;13.30;99.90;;;;;;5108617;27;20093;-78
2023/04/11 10:00:58;;;;;;;1999.90;999.90;;;13.20;99.80;;;;;;5120456;27;20028;-77
2023/04/11 10:03:25;;;;;;;1999.90;999.90;;;13.00;99.90;;;;;;5118894;28;20085;-83
2023/04/11 10:05:56;;;;;;;1999.90;999.90;;;13.30;99.90;;;;;;5118025;27;20047;-78
2023/04/11 10:08:27;;;;;;;1999.90;999.90;;;13.60;98.30;;;;;;5116745;27;20032;-78
2023/04/11 10:10:53;;;;;;;1999.90;999.90;;;13.70;97.40;;;;;;5102139;27;20028;-81
2023/04/11 10:13:34;;;;;;;1999.90;999.90;;;13.80;99.50;;;;;;5132307;27;20047;-83
2023/04/11 10:16:07;;;;;;;1999.90;999.90;;;13.80;96.80;;;;;;5121061;28;20142;-78
2023/04/11 10:18:37;;;;;;;1999.90;999.90;;;13.90;95.10;;;;;;5115605;28;20532;-77
2023/04/11 10:21:26;;;;;;;1999.90;999.90;;;14.00;95.30;;;;;;5115907;27;20033;-77
2023/04/11 10:24:10;;;;;;;1999.90;999.90;;;13.90;94.90;;;;;;5119074;28;20501;-82
2023/04/11 10:26:52;;;;;;;1999.90;999.90;;;13.90;94.70;;;;;;5109694;27;20124;-80
2023/04/11 10:32:23;;;;;;;1999.90;999.90;;;14.00;94.80;;;;;;5118249;27;20120;-76
2023/04/11 10:35:15;;;;;;;1999.90;999.90;;;13.80;94.10;;;;;;5121794;28;20093;-80
2023/04/11 10:37:40;;;;;;;1999.90;999.90;;;13.80;94.60;;;;;;5117980;27;20438;-76
2023/04/11 10:40:10;;;;;;;1999.90;999.90;;;13.70;94.50;;;;;;5115957;27;20040;-77
2023/04/11 10:42:39;;;;;;;1999.90;999.90;;;13.20;95.10;;;;;;5099397;27;20033;-73
2023/04/11 10:45:24;;;;;;;1999.90;999.90;;;13.10;96.70;;;;;;5095852;28;20029;-75
2023/04/11 10:47:55;;;;;;;1999.90;999.90;;;12.70;96.00;;;;;;5096367;28;20041;-76
2023/04/11 10:50:24;;;;;;;1999.90;999.90;;;12.60;96.00;;;;;;5109562;28;20028;-76
2023/04/11 10:52:49;;;;;;;1999.90;999.90;;;13.00;96.30;;;;;;5116749;27;20111;-80
2023/04/11 10:55:16;;;;;;;1999.90;999.90;;;13.30;96.80;;;;;;5118098;27;20455;-76
2023/04/11 10:58:04;;;;;;;1999.90;999.90;;;13.40;94.00;;;;;;5115642;27;20042;-76
2023/04/11 11:00:59;;;;;;;1999.90;999.90;;;13.40;94.70;;;;;;5116407;27;20028;-76
2023/04/11 11:03:29;;;;;;;1999.90;999.90;;;13.90;95.10;;;;;;5114665;27;20041;-75
2023/04/11 11:05:58;;;;;;;1999.90;999.90;;;13.70;95.00;;;;;;5113842;27;20028;-76
2023/04/11 11:08:29;;;;;;;1999.90;999.90;;;13.60;95.50;;;;;;5113026;27;20532;-76
2023/04/11 11:11:00;;;;;;;1999.90;999.90;;;13.40;95.60;;;;;;5102313;27;20043;-76
2023/04/11 11:13:37;;;;;;;1999.90;999.90;;;13.30;96.30;;;;;;5098709;27;20036;-76
2023/04/11 11:16:05;;;;;;;1999.90;999.90;;;13.50;95.60;;;;;;5118297;27;20872;-74
2023/04/11 11:18:33;;;;;;;1999.90;999.90;;;13.40;95.20;;;;;;5116190;28;20064;-74
2023/04/11 11:20:59;;;;;;;1999.90;999.90;;;13.80;96.30;;;;;;5113095;28;20469;-74
2023/04/11 11:23:25;;;;;;;1999.90;999.90;;;14.10;95.50;;;;;;5115489;27;20128;-74
2023/04/11 11:25:55;;;;;;;1999.90;999.90;;;14.10;95.00;;;;;;5096588;27;20109;-75
2023/04/11 11:28:21;;;;;;;1999.90;999.90;;;14.40;95.00;;;;;;5090119;27;20035;-75
2023/04/11 11:30:55;;;;;;;1999.90;999.90;;;14.00;93.80;;;;;;5113638;28;20035;-75
2023/04/11 11:33:25;;;;;;;1999.90;999.90;;;13.90;94.90;;;;;;5115622;27;20468;-75
2023/04/11 11:35:57;;;;;;;1999.90;999.90;;;14.00;94.40;;;;;;5114720;27;20463;-74
2023/04/11 11:38:26;;;;;;;1999.90;999.90;;;13.90;93.80;;;;;;5107820;27;20032;-75
2023/04/11 11:40:52;;;;;;;1999.90;999.90;;;13.90;95.80;;;;;;5094784;28;20029;-75
2023/04/11 11:43:18;;;;;;;1999.90;999.90;;;14.20;96.10;;;;;;5098213;28;20085;-75
2023/04/11 11:45:44;;;;;;;1999.90;999.90;;;14.20;94.60;;;;;;5109648;27;20482;-75
2023/04/11 11:48:24;;;;;;;1999.90;999.90;;;14.10;95.30;;;;;;5104820;28;20548;-75
2023/04/11 11:50:56;;;;;;;1999.90;999.90;;;14.10;94.80;;;;;;5105159;28;20028;-75
2023/04/11 11:53:23;;;;;;;1999.90;999.90;;;14.20;94.10;;;;;;5115501;28;20543;-75
2023/04/11 11:55:49;;;;;;;1999.90;999.90;;;14.50;95.30;;;;;;5115500;27;20028;-75
2023/04/11 11:58:16;;;;;;;1999.90;999.90;;;14.80;93.70;;;;;;5115496;27;20032;-75
2023/04/11 12:00:41;;;;;;;1999.90;999.90;;;14.90;91.80;;;;;;5104664;27;20504;-75
2023/04/11 12:03:08;;;;;;;1999.90;999.90;;;14.70;93.20;;;;;;5115711;27;20044;-75
2023/04/11 12:05:34;;;;;;;1999.90;999.90;;;14.80;92.80;;;;;;5115266;27;20471;-74
2023/04/11 12:08:06;;;;;;;1999.90;999.90;;;14.80;92.70;;;;;;5113997;27;20043;-76